SHMÚ vydal meteorologické výstrahy na Wind Display warnings

METAR

Aeronautical MET Report METAR

METAR description (Slovak)

25.03.2017 - 13:30 UTC

METAR LZIB 251330Z 28005KT 220V360 CAVOK 14/M01 Q1023 NOSIG=
METAR LZKZ 251330Z 03010KT CAVOK 13/M03 Q1021 NOSIG=
METAR LZPP 251330Z 34008KT CAVOK 14/M02 Q1023=
METAR LZSL 251330Z 33009KT CAVOK 14/M05 Q1022=
METAR LZTT 251330Z 25015KT 9999 FEW066 09/M05 Q1021 NOSIG=
METAR LZZI 251330Z 33006KT 270V020 CAVOK 12/M03 Q1023=

25.03.2017 - 13:00 UTC

METAR LZIB 251300Z VRB04KT 9999 FEW046 14/01 Q1024 NOSIG=
METAR LZKZ 251300Z 02011KT CAVOK 13/M04 Q1022 NOSIG=
METAR LZPP 251300Z 32007KT CAVOK 14/M03 Q1024=
METAR LZSL 251300Z 01003KT 310V070 CAVOK 14/M03 Q1022=
METAR LZTT 251300Z 25013KT 9999 FEW060 10/M04 Q1021 NOSIG=
METAR LZZI 251300Z 34007KT 310V010 CAVOK 12/M02 Q1024=

25.03.2017 - 13:00 UTC

METAR LZMC 251300Z 33006KT CAVOK 14/M04 Q1025=
METAR LZPW 251300Z 34008KT CAVOK 13/M03 Q1022=

 

 

skok na menu ↑


skok na začiatok stránky ↑